Time,TemperatureF,DewpointF,PressureIn,WindDirection,WindDirectionDegrees,WindSpeedMPH,WindSpeedGustMPH,Humidity,HourlyPrecipIn,Conditions,Clouds,dailyrainin,SolarRadiationWatts/m^2,SoftwareType,DateUTC
2013-01-27 08:20:00,21.3,19.6,30.64,NNW,333,0.0,0.0,93,0.00,,,0.00,32,Wunderground v.1.15,2013-01-27 13:20:00,
2013-01-27 08:25:00,21.5,19.8,30.64,NNW,333,0.0,0.0,93,0.00,,,0.00,33,Wunderground v.1.15,2013-01-27 13:25:00,
2013-01-27 08:35:00,21.7,20.0,30.65,NNW,333,0.0,0.0,93,0.00,,,0.00,42,Wunderground v.1.15,2013-01-27 13:35:00,
2013-01-27 08:45:00,22.0,20.3,30.65,NNW,333,0.0,0.0,93,0.00,,,0.00,62,Wunderground v.1.15,2013-01-27 13:45:00,
2013-01-27 08:50:00,22.2,20.5,30.65,NNW,333,0.0,0.0,93,0.00,,,0.00,62,Wunderground v.1.15,2013-01-27 13:50:00,
2013-01-27 08:55:00,22.4,20.7,30.65,NNW,333,0.0,0.0,93,0.00,,,0.00,76,Wunderground v.1.15,2013-01-27 13:55:00,
2013-01-27 09:00:00,22.7,21.0,30.66,NNW,333,0.0,0.0,93,0.00,,,0.00,76,Wunderground v.1.15,2013-01-27 14:00:00,
2013-01-27 09:10:00,23.0,21.0,30.66,West,264,0.0,0.0,92,0.00,,,0.00,79,Wunderground v.1.15,2013-01-27 14:10:00,
2013-01-27 09:15:00,23.1,20.9,30.66,West,264,0.0,0.0,91,0.00,,,0.00,90,Wunderground v.1.15,2013-01-27 14:15:00,
2013-01-27 09:25:00,23.5,21.0,30.66,West,264,0.0,0.0,90,0.00,,,0.00,90,Wunderground v.1.15,2013-01-27 14:25:00,
2013-01-27 09:35:00,23.9,21.1,30.67,West,264,0.0,0.0,89,0.00,,,0.00,84,Wunderground v.1.15,2013-01-27 14:35:00,
2013-01-27 09:45:00,24.3,21.0,30.68,West,264,0.0,0.0,87,0.00,,,0.00,97,Wunderground v.1.15,2013-01-27 14:45:00,
2013-01-27 09:50:00,24.4,21.1,30.68,WSW,247,0.0,0.0,87,0.00,,,0.00,98,Wunderground v.1.15,2013-01-27 14:50:00,
2013-01-27 10:00:00,24.7,20.8,30.68,WSW,246,0.0,1.0,85,0.00,,,0.00,114,Wunderground v.1.15,2013-01-27 15:00:00,
2013-01-27 10:10:00,24.8,20.7,30.68,WSW,246,0.0,0.0,84,0.00,,,0.00,118,Wunderground v.1.15,2013-01-27 15:10:00,
2013-01-27 10:20:00,25.1,20.9,30.68,WSW,249,0.0,2.0,84,0.00,,,0.00,127,Wunderground v.1.15,2013-01-27 15:20:00,
2013-01-27 10:25:00,25.2,21.3,30.68,WSW,246,0.0,2.0,85,0.00,,,0.00,128,Wunderground v.1.15,2013-01-27 15:25:00,
2013-01-27 10:35:00,25.5,21.3,30.68,WSW,246,0.0,0.0,84,0.00,,,0.00,158,Wunderground v.1.15,2013-01-27 15:35:00,
2013-01-27 10:40:00,25.7,21.5,30.68,WSW,246,0.0,0.0,84,0.00,,,0.00,141,Wunderground v.1.15,2013-01-27 15:40:00,
2013-01-27 10:45:00,25.8,21.6,30.69,WSW,240,0.0,0.0,84,0.00,,,0.00,84,Wunderground v.1.15,2013-01-27 15:45:00,
2013-01-27 10:50:00,25.8,21.6,30.69,WSW,238,0.0,0.0,84,0.00,,,0.00,130,Wunderground v.1.15,2013-01-27 15:50:00,
2013-01-27 11:00:00,25.8,21.6,30.69,WSW,238,0.0,0.0,84,0.00,,,0.00,142,Wunderground v.1.15,2013-01-27 16:00:00,
2013-01-27 11:10:00,26.0,22.1,30.68,WSW,238,0.0,0.0,85,0.00,,,0.00,172,Wunderground v.1.15,2013-01-27 16:10:00,
2013-01-27 11:15:00,26.1,21.9,30.68,WSW,237,0.0,0.0,84,0.00,,,0.00,167,Wunderground v.1.15,2013-01-27 16:15:00,
2013-01-27 11:25:00,26.4,22.5,30.68,WSW,238,0.0,0.0,85,0.00,,,0.00,190,Wunderground v.1.15,2013-01-27 16:25:00,
2013-01-27 11:30:00,26.5,22.3,30.68,WSW,237,0.0,1.0,84,0.00,,,0.00,199,Wunderground v.1.15,2013-01-27 16:30:00,
2013-01-27 11:35:00,26.7,22.2,30.67,SW,234,0.0,1.0,83,0.00,,,0.00,209,Wunderground v.1.15,2013-01-27 16:35:00,
2013-01-27 11:40:00,26.9,22.4,30.68,SW,232,0.0,0.0,83,0.00,,,0.00,199,Wunderground v.1.15,2013-01-27 16:40:00,
2013-01-27 11:45:00,27.0,22.5,30.68,SW,232,0.0,0.0,83,0.00,,,0.00,179,Wunderground v.1.15,2013-01-27 16:45:00,
2013-01-27 11:55:00,27.3,22.8,30.67,SW,230,0.0,0.0,83,0.00,,,0.00,209,Wunderground v.1.15,2013-01-27 16:55:00,
2013-01-27 12:00:00,27.5,23.0,30.67,SW,226,0.0,0.0,83,0.00,,,0.00,213,Wunderground v.1.15,2013-01-27 17:00:00,
2013-01-27 12:10:00,27.7,22.9,30.67,SW,219,0.0,1.0,82,0.00,,,0.00,258,Wunderground v.1.15,2013-01-27 17:10:00,
2013-01-27 12:15:00,27.7,22.9,30.67,SW,218,0.0,1.0,82,0.00,,,0.00,237,Wunderground v.1.15,2013-01-27 17:15:00,
2013-01-27 12:25:00,27.7,22.9,30.67,WSW,248,1.0,1.0,82,0.00,,,0.00,236,Wunderground v.1.15,2013-01-27 17:25:00,
2013-01-27 12:30:00,27.8,23.0,30.67,WSW,246,1.0,1.0,82,0.00,,,0.00,362,Wunderground v.1.15,2013-01-27 17:30:00,
2013-01-27 12:40:00,28.0,22.9,30.66,South,179,1.0,1.0,81,0.00,,,0.00,274,Wunderground v.1.15,2013-01-27 17:40:00,
2013-01-27 12:45:00,28.3,23.5,30.66,South,179,0.0,2.0,82,0.00,,,0.00,598,Wunderground v.1.15,2013-01-27 17:45:00,
2013-01-27 12:55:00,29.2,23.5,30.66,SW,233,1.0,1.0,79,0.00,,,0.00,241,Wunderground v.1.15,2013-01-27 17:55:00,
2013-01-27 13:00:00,29.0,23.3,30.65,WNW,295,1.0,1.0,79,0.00,,,0.00,497,Wunderground v.1.15,2013-01-27 18:00:00,
2013-01-27 13:10:00,29.9,23.9,30.65,South,191,1.0,1.0,78,0.00,,,0.00,353,Wunderground v.1.15,2013-01-27 18:10:00,
2013-01-27 13:20:00,30.1,24.1,30.65,WSW,251,1.0,1.0,78,0.00,,,0.00,302,Wunderground v.1.15,2013-01-27 18:20:00,
2013-01-27 13:25:00,30.1,24.1,30.65,WSW,252,1.0,1.0,78,0.00,,,0.00,485,Wunderground v.1.15,2013-01-27 18:25:00,
2013-01-27 13:35:00,30.0,23.7,30.64,SW,221,1.0,1.0,77,0.00,,,0.00,323,Wunderground v.1.15,2013-01-27 18:35:00,
2013-01-27 13:45:00,29.6,23.9,30.64,NNW,342,1.0,1.0,79,0.00,,,0.00,496,Wunderground v.1.15,2013-01-27 18:45:00,
2013-01-27 13:50:00,29.7,24.3,30.64,NNW,330,1.0,1.0,80,0.00,,,0.01,512,Wunderground v.1.15,2013-01-27 18:50:00,
2013-01-27 14:00:00,30.6,24.6,30.64,South,172,1.0,2.0,78,0.00,,,0.01,524,Wunderground v.1.15,2013-01-27 19:00:00,
2013-01-27 14:10:00,31.2,25.1,30.64,West,265,1.0,3.0,78,0.00,,,0.01,513,Wunderground v.1.15,2013-01-27 19:10:00,
2013-01-27 14:20:00,31.1,24.4,30.64,SW,217,1.0,1.0,76,0.00,,,0.01,360,Wunderground v.1.15,2013-01-27 19:20:00,
2013-01-27 14:25:00,31.2,24.8,30.64,WSW,244,1.0,1.0,77,0.00,,,0.02,482,Wunderground v.1.15,2013-01-27 19:25:00,
2013-01-27 14:30:00,31.3,25.2,30.63,SW,233,1.0,1.0,78,0.00,,,0.02,330,Wunderground v.1.15,2013-01-27 19:30:00,
2013-01-27 14:40:00,31.6,25.2,30.63,South,180,0.0,0.0,77,0.00,,,0.02,225,Wunderground v.1.15,2013-01-27 19:40:00,
2013-01-27 14:45:00,31.7,25.0,30.63,South,179,0.0,4.0,76,0.00,,,0.03,302,Wunderground v.1.15,2013-01-27 19:45:00,
2013-01-27 14:50:00,31.5,25.1,30.63,SW,222,1.0,2.0,77,0.00,,,0.03,427,Wunderground v.1.15,2013-01-27 19:50:00,
2013-01-27 14:55:00,31.4,25.0,30.63,WSW,254,1.0,2.0,77,0.00,,,0.03,220,Wunderground v.1.15,2013-01-27 19:55:00,
2013-01-27 15:00:00,31.2,24.8,30.64,SSW,205,1.0,1.0,77,0.00,,,0.03,190,Wunderground v.1.15,2013-01-27 20:00:00,
2013-01-27 15:10:00,30.9,24.8,30.64,SW,223,0.0,1.0,78,0.00,,,0.03,111,Wunderground v.1.15,2013-01-27 20:10:00,
2013-01-27 15:15:00,30.7,24.7,30.64,SW,219,0.0,1.0,78,0.00,,,0.03,123,Wunderground v.1.15,2013-01-27 20:15:00,
2013-01-27 15:20:00,30.5,24.8,30.64,WNW,292,0.0,3.0,79,0.00,,,0.03,163,Wunderground v.1.15,2013-01-27 20:20:00,
2013-01-27 15:30:00,30.2,24.8,30.63,West,281,0.0,0.0,80,0.00,,,0.03,100,Wunderground v.1.15,2013-01-27 20:30:00,
2013-01-27 15:40:00,30.0,24.9,30.64,West,277,0.0,0.0,81,0.00,,,0.03,91,Wunderground v.1.15,2013-01-27 20:40:00,
2013-01-27 15:45:00,29.9,24.8,30.64,West,267,0.0,0.0,81,0.00,,,0.04,81,Wunderground v.1.15,2013-01-27 20:45:00,
2013-01-27 15:50:00,29.8,24.7,30.64,West,267,0.0,0.0,81,0.00,,,0.04,49,Wunderground v.1.15,2013-01-27 20:50:00,
2013-01-27 16:00:00,29.6,24.5,30.64,West,267,0.0,0.0,81,0.00,,,0.04,49,Wunderground v.1.15,2013-01-27 21:00:00,
2013-01-27 16:10:00,29.4,24.6,30.64,West,267,0.0,0.0,82,0.00,,,0.04,44,Wunderground v.1.15,2013-01-27 21:10:00,
2013-01-27 16:20:00,29.2,24.4,30.64,West,264,0.0,0.0,82,0.00,,,0.04,51,Wunderground v.1.15,2013-01-27 21:20:00,
2013-01-27 16:25:00,29.2,24.4,30.64,West,264,0.0,0.0,82,0.00,,,0.04,58,Wunderground v.1.15,2013-01-27 21:25:00,
2013-01-27 16:35:00,29.2,24.4,30.64,West,264,0.0,0.0,82,0.00,,,0.04,54,Wunderground v.1.15,2013-01-27 21:35:00,
2013-01-27 16:40:00,29.2,24.4,30.64,West,264,0.0,0.0,82,0.00,,,0.04,56,Wunderground v.1.15,2013-01-27 21:40:00,
2013-01-27 16:45:00,29.2,24.7,30.64,West,264,0.0,0.0,83,0.00,,,0.04,53,Wunderground v.1.15,2013-01-27 21:45:00,
2013-01-27 16:50:00,29.3,24.8,30.64,West,264,0.0,0.0,83,0.00,,,0.04,63,Wunderground v.1.15,2013-01-27 21:50:00,
2013-01-27 17:00:00,29.4,24.6,30.64,West,264,0.0,0.0,82,0.00,,,0.04,42,Wunderground v.1.15,2013-01-27 22:00:00,
2013-01-27 17:05:00,29.4,24.6,30.64,West,264,0.0,0.0,82,0.00,,,0.04,42,Wunderground v.1.15,2013-01-27 22:05:00,
2013-01-27 17:10:00,29.4,24.6,30.64,West,264,0.0,0.0,82,0.00,,,0.04,28,Wunderground v.1.15,2013-01-27 22:10:00,
2013-01-27 17:20:00,29.4,24.6,30.65,West,264,0.0,0.0,82,0.00,,,0.04,12,Wunderground v.1.15,2013-01-27 22:20:00,
2013-01-27 17:35:00,29.2,24.4,30.66,West,264,0.0,0.0,82,0.00,,,0.04,7,Wunderground v.1.15,2013-01-27 22:35:00,
2013-01-27 17:45:00,29.1,24.6,30.66,West,264,0.0,0.0,83,0.00,,,0.04,0,Wunderground v.1.15,2013-01-27 22:45:00,
2013-01-27 17:50:00,29.0,24.5,30.66,West,264,0.0,0.0,83,0.00,,,0.04,0,Wunderground v.1.15,2013-01-27 22:50:00,
2013-01-27 18:00:00,29.0,24.5,30.66,West,264,0.0,0.0,83,0.00,,,0.04,0,Wunderground v.1.15,2013-01-27 23:00:00,
2013-01-27 18:10:00,29.0,24.8,30.66,West,264,0.0,0.0,84,0.00,,,0.04,0,Wunderground v.1.15,2013-01-27 23:10:00,
2013-01-27 18:20:00,28.9,24.7,30.64,West,264,0.0,0.0,84,0.00,,,0.04,0,Wunderground v.1.15,2013-01-27 23:20:00,
2013-01-27 18:30:00,28.9,24.7,30.65,West,264,0.0,0.0,84,0.00,,,0.04,0,Wunderground v.1.15,2013-01-27 23:30:00,
2013-01-27 18:35:00,28.9,24.7,30.65,West,264,0.0,0.0,84,0.00,,,0.04,0,Wunderground v.1.15,2013-01-27 23:35:00,
2013-01-27 18:45:00,28.9,24.7,30.66,West,264,0.0,0.0,84,0.00,,,0.04,0,Wunderground v.1.15,2013-01-27 23:45:00,
2013-01-27 18:55:00,28.9,24.7,30.65,West,264,0.0,0.0,84,0.00,,,0.04,0,Wunderground v.1.15,2013-01-27 23:55:00,
2013-01-27 19:00:00,28.9,24.7,30.65,West,264,0.0,0.0,84,0.00,,,0.04,0,Wunderground v.1.15,2013-01-28 00:00:00,
2013-01-27 19:10:00,28.9,24.7,30.66,West,264,0.0,0.0,84,0.00,,,0.04,0,Wunderground v.1.15,2013-01-28 00:10:00,
2013-01-27 19:20:00,29.0,24.8,30.66,West,264,0.0,0.0,84,0.00,,,0.04,0,Wunderground v.1.15,2013-01-28 00:20:00,
2013-01-27 19:25:00,29.0,24.8,30.66,West,264,0.0,0.0,84,0.00,,,0.04,0,Wunderground v.1.15,2013-01-28 00:25:00,
2013-01-27 19:30:00,29.0,24.8,30.66,West,264,0.0,0.0,84,0.00,,,0.04,0,Wunderground v.1.15,2013-01-28 00:30:00,
2013-01-27 19:45:00,29.0,24.8,30.66,West,264,0.0,0.0,84,0.00,,,0.04,0,Wunderground v.1.15,2013-01-28 00:45:00,
2013-01-27 19:50:00,29.0,24.8,30.66,West,264,0.0,0.0,84,0.00,,,0.04,0,Wunderground v.1.15,2013-01-28 00:50:00,
2013-01-27 20:00:00,29.0,24.8,30.66,West,264,0.0,0.0,84,0.00,,,0.04,0,Wunderground v.1.15,2013-01-28 01:00:00,
2013-01-27 20:10:00,29.0,24.8,30.66,West,264,0.0,0.0,84,0.00,,,0.04,0,Wunderground v.1.15,2013-01-28 01:10:00,
2013-01-27 20:15:00,29.0,24.8,30.66,West,264,0.0,0.0,84,0.00,,,0.04,0,Wunderground v.1.15,2013-01-28 01:15:00,
2013-01-27 20:20:00,29.0,24.8,30.66,West,264,0.0,0.0,84,0.00,,,0.04,0,Wunderground v.1.15,2013-01-28 01:20:00,
2013-01-27 20:30:00,29.0,25.1,30.66,West,264,0.0,0.0,85,0.00,,,0.04,0,Wunderground v.1.15,2013-01-28 01:30:00,
2013-01-27 20:35:00,29.0,24.8,30.66,West,264,0.0,0.0,84,0.00,,,0.04,0,Wunderground v.1.15,2013-01-28 01:35:00,
2013-01-27 20:45:00,29.0,25.1,30.66,West,264,0.0,0.0,85,0.00,,,0.04,0,Wunderground v.1.15,2013-01-28 01:45:00,
2013-01-27 20:50:00,29.0,24.8,30.66,West,264,0.0,0.0,84,0.00,,,0.04,0,Wunderground v.1.15,2013-01-28 01:50:00,
2013-01-27 21:00:00,28.9,24.7,30.66,SSW,202,0.0,0.0,84,0.00,,,0.04,0,Wunderground v.1.15,2013-01-28 02:00:00,
2013-01-27 21:10:00,29.0,24.8,30.66,SW,226,0.0,0.0,84,0.00,,,0.04,0,Wunderground v.1.15,2013-01-28 02:10:00,
2013-01-27 21:15:00,29.0,24.8,30.66,SSW,194,0.0,0.0,84,0.00,,,0.04,0,Wunderground v.1.15,2013-01-28 02:15:00,
2013-01-27 21:25:00,29.1,24.9,30.66,West,259,0.0,0.0,84,0.00,,,0.04,0,Wunderground v.1.15,2013-01-28 02:25:00,
2013-01-27 22:40:00,29.6,25.1,30.63,SW,228,0.0,4.0,83,0.00,,,0.04,0,Wunderground v.1.15,2013-01-28 03:40:00,
2013-01-27 22:50:00,29.7,25.5,30.63,SW,226,0.0,0.0,84,0.00,,,0.04,0,Wunderground v.1.15,2013-01-28 03:50:00,
2013-01-27 22:55:00,29.7,25.7,30.63,SW,227,0.0,0.0,85,0.00,,,0.04,0,Wunderground v.1.15,2013-01-28 03:55:00,